createdAt,value
2018-04-19T00:01:52.956Z,15.17
2018-04-19T00:04:20.386Z,15.14
2018-04-19T00:06:47.800Z,15.13
2018-04-19T00:09:15.228Z,15.12
2018-04-19T00:11:42.642Z,15.11
2018-04-19T00:14:10.076Z,15.12
2018-04-19T00:16:37.505Z,15.12
2018-04-19T00:19:04.933Z,15.12
2018-04-19T00:21:32.344Z,15.08
2018-04-19T00:23:59.787Z,15.04
2018-04-19T00:26:27.199Z,14.99
2018-04-19T00:28:54.626Z,14.95
2018-04-19T00:31:22.066Z,14.92
2018-04-19T00:33:49.508Z,14.90
2018-04-19T00:36:16.956Z,14.86
2018-04-19T00:38:44.393Z,14.83
2018-04-19T00:41:11.828Z,14.79
2018-04-19T00:43:39.253Z,14.77
2018-04-19T00:46:06.764Z,14.75
2018-04-19T00:48:34.185Z,14.74
2018-04-19T00:51:02.424Z,14.71
2018-04-19T00:53:29.858Z,14.70
2018-04-19T00:55:57.276Z,14.69
2018-04-19T00:58:24.722Z,14.68
2018-04-19T01:00:52.124Z,14.64
2018-04-19T01:03:19.553Z,14.57
2018-04-19T01:05:46.964Z,14.52
2018-04-19T01:08:14.393Z,14.50
2018-04-19T01:10:41.809Z,14.44
2018-04-19T01:13:09.232Z,14.39
2018-04-19T01:15:36.664Z,14.36
2018-04-19T01:18:04.083Z,14.33
2018-04-19T01:20:31.500Z,14.29
2018-04-19T01:22:58.924Z,14.26
2018-04-19T01:25:26.491Z,14.25
2018-04-19T01:27:53.899Z,14.22
2018-04-19T01:30:21.312Z,14.20
2018-04-19T01:32:48.752Z,14.20
2018-04-19T01:35:16.171Z,14.20
2018-04-19T01:37:43.748Z,14.18
2018-04-19T01:40:11.199Z,14.16
2018-04-19T01:42:38.615Z,14.15
2018-04-19T01:45:06.053Z,14.14
2018-04-19T01:47:33.491Z,14.09
2018-04-19T01:50:00.905Z,14.04
2018-04-19T01:52:28.320Z,14.02
2018-04-19T01:54:55.760Z,13.98
2018-04-19T01:57:23.171Z,13.93
2018-04-19T01:59:50.592Z,13.89
2018-04-19T02:02:18.019Z,13.83
2018-04-19T02:04:45.432Z,13.74
2018-04-19T02:07:12.896Z,13.71
2018-04-19T02:09:40.281Z,13.67
2018-04-19T02:12:07.688Z,13.67
2018-04-19T02:14:35.120Z,13.66
2018-04-19T02:17:02.541Z,13.65
2018-04-19T02:19:29.957Z,13.63
2018-04-19T02:21:57.391Z,13.60
2018-04-19T02:24:24.796Z,13.60
2018-04-19T02:26:52.231Z,13.60
2018-04-19T02:29:19.640Z,13.60
2018-04-19T02:31:47.073Z,13.60
2018-04-19T02:34:14.504Z,13.58
2018-04-19T02:36:41.922Z,13.57
2018-04-19T02:39:09.365Z,13.55
2018-04-19T02:41:36.793Z,13.46
2018-04-19T02:44:04.225Z,13.48
2018-04-19T02:46:31.656Z,13.41
2018-04-19T02:48:59.099Z,13.37
2018-04-19T02:51:26.517Z,13.34
2018-04-19T02:53:54.126Z,13.31
2018-04-19T02:56:21.548Z,13.29
2018-04-19T02:58:48.960Z,13.26
2018-04-19T03:01:16.403Z,13.23
2018-04-19T03:03:43.808Z,13.22
2018-04-19T03:06:11.512Z,13.21
2018-04-19T03:08:39.080Z,13.20
2018-04-19T03:11:06.500Z,13.19
2018-04-19T03:13:33.904Z,13.20
2018-04-19T03:16:01.337Z,13.19
2018-04-19T03:18:28.764Z,13.17
2018-04-19T03:20:56.168Z,13.13
2018-04-19T03:23:23.613Z,13.10
2018-04-19T03:25:51.016Z,13.08
2018-04-19T03:28:18.433Z,13.07
2018-04-19T03:30:45.863Z,13.08
2018-04-19T03:33:13.267Z,13.09
2018-04-19T03:35:40.683Z,13.08
2018-04-19T03:38:08.112Z,13.07
2018-04-19T03:40:35.524Z,13.06
2018-04-19T03:43:02.956Z,13.04
2018-04-19T03:45:30.364Z,13.03
2018-04-19T03:47:57.774Z,12.98
2018-04-19T03:50:25.214Z,12.95
2018-04-19T03:52:52.650Z,12.92
2018-04-19T03:55:20.142Z,12.91
2018-04-19T03:57:47.540Z,12.92
2018-04-19T04:00:14.962Z,12.91
2018-04-19T04:02:42.374Z,12.89
2018-04-19T04:05:09.808Z,12.86
2018-04-19T04:07:37.229Z,12.84
2018-04-19T04:10:04.646Z,12.82
2018-04-19T04:12:32.068Z,12.81
2018-04-19T04:14:59.495Z,12.80
2018-04-19T04:17:38.598Z,12.79
2018-04-19T04:20:19.564Z,12.80
2018-04-19T04:22:58.632Z,12.81
2018-04-19T04:25:26.047Z,12.83
2018-04-19T04:27:53.476Z,12.84
2018-04-19T04:30:20.926Z,12.85
2018-04-19T04:32:48.353Z,12.85
2018-04-19T04:35:15.847Z,12.87
2018-04-19T04:37:43.257Z,12.90
2018-04-19T04:40:10.685Z,12.94
2018-04-19T04:42:38.127Z,13.00
2018-04-19T04:45:05.549Z,13.07
2018-04-19T04:47:33.001Z,13.15
2018-04-19T04:50:00.439Z,13.23
2018-04-19T04:52:27.853Z,13.39
2018-04-19T04:54:55.269Z,13.77
2018-04-19T04:57:22.688Z,14.24
2018-04-19T04:59:50.116Z,14.77
2018-04-19T05:02:17.554Z,15.33
2018-04-19T05:04:44.956Z,15.92
2018-04-19T05:07:12.381Z,16.52
2018-04-19T05:09:39.791Z,17.06
2018-04-19T05:12:07.216Z,17.53
2018-04-19T05:14:34.649Z,17.90
2018-04-19T05:17:02.072Z,18.39
2018-04-19T05:19:29.483Z,18.82
2018-04-19T05:21:56.906Z,19.21
2018-04-19T05:24:24.332Z,19.62
2018-04-19T05:26:51.832Z,20.07
2018-04-19T05:29:19.252Z,20.41
2018-04-19T05:31:46.746Z,20.76
2018-04-19T05:34:14.157Z,21.12
2018-04-19T05:36:41.590Z,21.61
2018-04-19T05:39:09.001Z,22.07
2018-04-19T05:41:36.464Z,22.31
2018-04-19T05:44:03.917Z,22.71
2018-04-19T05:46:31.440Z,23.06
2018-04-19T05:48:58.900Z,23.38
2018-04-19T05:51:26.336Z,23.58
2018-04-19T05:53:53.814Z,23.68
2018-04-19T05:56:21.228Z,24.02
2018-04-19T05:58:48.654Z,24.30
2018-04-19T06:01:16.267Z,24.48
2018-04-19T06:03:43.692Z,24.46
2018-04-19T06:06:11.114Z,24.59
2018-04-19T06:08:38.622Z,24.92
2018-04-19T06:11:06.043Z,25.35
2018-04-19T06:13:33.525Z,25.72
2018-04-19T06:16:00.961Z,26.02
2018-04-19T06:18:28.456Z,25.93
2018-04-19T06:20:55.890Z,26.07
2018-04-19T06:23:23.315Z,26.27
2018-04-19T06:25:50.757Z,26.69
2018-04-19T06:28:18.189Z,26.95
2018-04-19T06:30:45.956Z,27.23
2018-04-19T06:33:13.390Z,27.39
2018-04-19T06:35:40.821Z,27.42
2018-04-19T06:38:08.265Z,27.33
2018-04-19T06:40:36.608Z,27.36
2018-04-19T06:43:04.052Z,27.16
2018-04-19T06:45:31.485Z,27.29
2018-04-19T06:47:58.904Z,27.54
2018-04-19T06:50:26.372Z,27.73
2018-04-19T06:52:53.820Z,27.73
2018-04-19T06:55:21.245Z,28.01
2018-04-19T06:57:48.851Z,28.00
2018-04-19T07:00:16.292Z,27.92
2018-04-19T07:02:43.719Z,27.94
2018-04-19T07:05:11.342Z,27.73
2018-04-19T07:07:38.772Z,27.78
2018-04-19T07:10:06.344Z,27.22
2018-04-19T07:12:33.912Z,27.24
2018-04-19T07:15:01.365Z,27.66
2018-04-19T07:17:28.786Z,27.88
2018-04-19T07:19:56.244Z,27.83
2018-04-19T07:22:23.837Z,27.60
2018-04-19T07:24:51.269Z,27.47
2018-04-19T07:27:18.696Z,27.31
2018-04-19T07:29:46.163Z,27.38
2018-04-19T07:32:13.632Z,27.38
2018-04-19T07:34:40.999Z,27.71
2018-04-19T07:37:08.459Z,28.08
2018-04-19T07:39:35.914Z,28.39
2018-04-19T07:42:03.350Z,28.64
2018-04-19T07:44:30.799Z,28.93
2018-04-19T07:46:58.213Z,29.14
2018-04-19T07:49:25.650Z,28.92
2018-04-19T07:51:53.090Z,28.94
2018-04-19T07:54:20.543Z,28.91
2018-04-19T07:56:48.005Z,28.73
2018-04-19T07:59:15.464Z,28.79
2018-04-19T08:01:42.898Z,28.58
2018-04-19T08:04:10.341Z,28.60
2018-04-19T08:06:37.753Z,28.89
2018-04-19T08:09:07.826Z,29.04
2018-04-19T08:11:35.296Z,29.26
2018-04-19T08:14:02.765Z,29.36
2018-04-19T08:16:30.196Z,29.57
2018-04-19T08:18:57.641Z,29.73
2018-04-19T08:21:25.059Z,29.72
2018-04-19T08:23:52.526Z,29.88
2018-04-19T08:26:19.976Z,29.99
2018-04-19T08:28:47.442Z,30.07
2018-04-19T08:31:14.887Z,30.05
2018-04-19T08:33:42.351Z,30.10
2018-04-19T08:36:09.800Z,30.01
2018-04-19T08:38:37.232Z,29.85
2018-04-19T08:41:04.686Z,29.92
2018-04-19T08:43:32.121Z,30.02
2018-04-19T08:45:59.574Z,29.88
2018-04-19T08:48:27.000Z,29.98
2018-04-19T08:50:54.441Z,29.86
2018-04-19T08:53:21.859Z,29.78
2018-04-19T08:55:49.309Z,29.47
2018-04-19T08:58:16.729Z,29.46
2018-04-19T09:00:44.148Z,29.57
2018-04-19T09:03:11.588Z,29.66
2018-04-19T09:05:39.021Z,29.84
2018-04-19T09:08:06.480Z,29.71
2018-04-19T09:10:33.955Z,29.91
2018-04-19T09:13:01.397Z,30.02
2018-04-19T09:15:28.865Z,30.11
2018-04-19T09:17:56.325Z,30.41
2018-04-19T09:20:23.758Z,30.49
2018-04-19T09:22:51.226Z,30.64
2018-04-19T09:25:18.666Z,30.70
2018-04-19T09:27:46.111Z,30.52
2018-04-19T09:30:13.552Z,30.83
2018-04-19T09:32:40.989Z,31.07
2018-04-19T09:35:08.431Z,31.24
2018-04-19T09:37:36.021Z,30.84
2018-04-19T09:40:03.457Z,30.44
2018-04-19T09:42:30.903Z,29.93
2018-04-19T09:44:58.349Z,29.54
2018-04-19T09:47:25.799Z,29.20
2018-04-19T09:49:53.268Z,28.93
2018-04-19T09:52:20.696Z,28.74
2018-04-19T09:54:48.145Z,28.74
2018-04-19T09:57:15.638Z,28.56
2018-04-19T09:59:43.119Z,28.27
2018-04-19T10:02:10.567Z,28.18
2018-04-19T10:04:38.132Z,28.11
2018-04-19T10:07:05.560Z,28.12
2018-04-19T10:09:33.010Z,28.12
2018-04-19T10:12:00.460Z,28.02
2018-04-19T10:14:27.875Z,27.92
2018-04-19T10:16:55.412Z,27.94
2018-04-19T10:19:22.847Z,27.83
2018-04-19T10:21:50.255Z,27.81
2018-04-19T10:24:17.702Z,27.82
2018-04-19T10:26:45.133Z,27.73
2018-04-19T10:29:12.573Z,27.73
2018-04-19T10:31:39.981Z,27.70
2018-04-19T10:34:07.453Z,27.73
2018-04-19T10:36:34.872Z,27.68
2018-04-19T10:39:02.299Z,27.58
2018-04-19T10:41:29.893Z,27.58
2018-04-19T10:43:57.342Z,27.56
2018-04-19T10:46:24.798Z,27.51
2018-04-19T10:48:52.252Z,27.52
2018-04-19T10:51:19.687Z,27.63
2018-04-19T10:53:47.105Z,27.67
2018-04-19T10:56:14.688Z,27.69
2018-04-19T10:58:42.099Z,27.70
2018-04-19T11:01:09.518Z,27.67
2018-04-19T11:03:36.947Z,27.58
2018-04-19T11:06:04.392Z,27.58
2018-04-19T11:08:31.809Z,27.64
2018-04-19T11:10:59.247Z,27.71
2018-04-19T11:13:26.681Z,27.81
2018-04-19T11:15:54.165Z,27.80
2018-04-19T11:18:21.609Z,27.85
2018-04-19T11:20:49.028Z,27.73
2018-04-19T11:23:16.464Z,27.77
2018-04-19T11:25:43.888Z,27.68
2018-04-19T11:28:11.314Z,27.70
2018-04-19T11:30:38.769Z,27.83
2018-04-19T11:33:06.296Z,27.86
2018-04-19T11:35:33.701Z,27.82
2018-04-19T11:38:01.123Z,27.89
2018-04-19T11:40:28.568Z,27.95
2018-04-19T11:42:55.983Z,27.96
2018-04-19T11:45:23.400Z,27.85
2018-04-19T11:47:50.847Z,27.87
2018-04-19T11:50:18.289Z,27.83
2018-04-19T11:52:45.831Z,27.94
2018-04-19T11:55:13.277Z,27.87
2018-04-19T11:57:40.685Z,27.98
2018-04-19T12:00:08.143Z,28.01
2018-04-19T12:02:35.559Z,28.03
2018-04-19T12:05:02.981Z,28.07
2018-04-19T12:07:30.456Z,28.12
2018-04-19T12:09:57.828Z,28.22
2018-04-19T12:12:25.257Z,28.24
2018-04-19T12:14:52.669Z,28.24
2018-04-19T12:17:20.093Z,28.21
2018-04-19T12:19:47.666Z,28.21
2018-04-19T12:22:16.107Z,28.25
2018-04-19T12:24:44.047Z,28.31
2018-04-19T12:27:11.491Z,28.36
2018-04-19T12:29:38.914Z,28.35
2018-04-19T12:32:06.335Z,28.44
2018-04-19T12:34:33.794Z,28.47
2018-04-19T12:37:01.311Z,28.55
2018-04-19T12:39:28.723Z,28.63
2018-04-19T12:41:56.149Z,28.66
2018-04-19T12:44:23.618Z,28.58
2018-04-19T12:46:51.036Z,28.52
2018-04-19T12:49:18.455Z,28.49
2018-04-19T12:51:45.890Z,28.40
2018-04-19T12:54:13.299Z,28.44
2018-04-19T12:56:40.865Z,28.39
2018-04-19T12:59:08.273Z,28.40
2018-04-19T13:01:35.747Z,28.44
2018-04-19T13:04:03.182Z,28.58
2018-04-19T13:06:30.647Z,28.60
2018-04-19T13:08:58.033Z,28.48
2018-04-19T13:11:25.453Z,28.51
2018-04-19T13:13:52.893Z,28.53
2018-04-19T13:16:20.302Z,28.61
2018-04-19T13:18:47.716Z,28.63
2018-04-19T13:21:15.146Z,28.47
2018-04-19T13:23:42.576Z,28.58
2018-04-19T13:26:10.003Z,28.55
2018-04-19T13:28:37.431Z,28.67
2018-04-19T13:31:04.840Z,28.70
2018-04-19T13:33:32.287Z,28.73
2018-04-19T13:35:59.724Z,28.75
2018-04-19T13:38:27.189Z,28.71
2018-04-19T13:40:54.632Z,28.82
2018-04-19T13:43:22.040Z,28.82
2018-04-19T13:45:49.488Z,28.91
2018-04-19T13:48:16.908Z,28.98
2018-04-19T13:50:44.316Z,29.06
2018-04-19T13:53:11.740Z,28.92
2018-04-19T13:55:39.401Z,28.98
2018-04-19T13:58:06.846Z,28.93
2018-04-19T14:00:34.286Z,28.84
2018-04-19T14:03:01.699Z,28.81
2018-04-19T14:05:29.113Z,28.94
2018-04-19T14:07:56.658Z,28.85
2018-04-19T14:10:24.091Z,28.88
2018-04-19T14:12:51.520Z,28.84
2018-04-19T14:15:18.971Z,28.80
2018-04-19T14:17:46.397Z,28.87
2018-04-19T14:20:13.814Z,28.87
2018-04-19T14:22:41.291Z,29.00
2018-04-19T14:25:08.727Z,29.00
2018-04-19T14:27:36.157Z,28.87
2018-04-19T14:30:03.590Z,28.78
2018-04-19T14:32:31.043Z,28.90
2018-04-19T14:34:58.463Z,28.87
2018-04-19T14:37:26.405Z,28.85
2018-04-19T14:39:55.084Z,28.90
2018-04-19T14:42:22.658Z,28.87
2018-04-19T14:44:50.090Z,28.78
2018-04-19T14:47:17.581Z,28.79
2018-04-19T14:49:45.027Z,28.82
2018-04-19T14:52:12.461Z,28.85
2018-04-19T14:54:39.863Z,28.92
2018-04-19T14:57:07.290Z,28.90
2018-04-19T14:59:34.719Z,28.96
2018-04-19T15:02:02.138Z,29.01
2018-04-19T15:04:29.571Z,28.98
2018-04-19T15:06:56.977Z,29.06
2018-04-19T15:09:24.424Z,29.10
2018-04-19T15:11:51.824Z,29.08
2018-04-19T15:14:19.240Z,29.03
2018-04-19T15:16:46.669Z,29.01
2018-04-19T15:19:14.089Z,28.93
2018-04-19T15:21:41.510Z,28.76
2018-04-19T15:24:08.996Z,28.76
2018-04-19T15:26:36.409Z,28.84
2018-04-19T15:29:03.860Z,28.84
2018-04-19T15:31:31.278Z,28.79
2018-04-19T15:33:58.697Z,28.79
2018-04-19T15:36:26.116Z,28.75
2018-04-19T15:38:53.543Z,28.74
2018-04-19T15:41:21.017Z,28.82
2018-04-19T15:43:48.414Z,28.78
2018-04-19T15:46:15.796Z,28.78
2018-04-19T15:48:43.248Z,28.76
2018-04-19T15:51:10.696Z,28.79
2018-04-19T15:53:38.146Z,28.81
2018-04-19T15:56:05.570Z,28.85
2018-04-19T15:58:32.973Z,28.87
2018-04-19T16:01:00.408Z,28.84
2018-04-19T16:03:27.808Z,28.79
2018-04-19T16:05:55.996Z,28.78
2018-04-19T16:08:23.432Z,28.71
2018-04-19T16:10:50.864Z,28.65
2018-04-19T16:13:19.169Z,28.62
2018-04-19T16:15:46.614Z,28.62
2018-04-19T16:18:14.036Z,28.62
2018-04-19T16:20:41.449Z,28.59
2018-04-19T16:23:08.868Z,28.61
2018-04-19T16:25:36.280Z,28.61
2018-04-19T16:28:03.726Z,28.59
2018-04-19T16:30:31.184Z,28.51
2018-04-19T16:32:58.653Z,28.49
2018-04-19T16:35:26.114Z,28.46
2018-04-19T16:37:53.539Z,28.36
2018-04-19T16:40:21.106Z,28.36
2018-04-19T16:42:48.527Z,28.38
2018-04-19T16:45:16.023Z,28.32
2018-04-19T16:47:43.460Z,28.31
2018-04-19T16:50:10.951Z,28.27
2018-04-19T16:52:38.316Z,28.19
2018-04-19T16:55:05.753Z,28.19
2018-04-19T16:57:33.190Z,28.15
2018-04-19T17:00:00.592Z,28.09
2018-04-19T17:02:28.008Z,28.08
2018-04-19T17:04:55.497Z,28.01
2018-04-19T17:07:22.916Z,27.97
2018-04-19T17:09:50.345Z,27.94
2018-04-19T17:12:17.752Z,27.88
2018-04-19T17:14:45.207Z,27.82
2018-04-19T17:17:12.973Z,27.80
2018-04-19T17:19:40.420Z,27.67
2018-04-19T17:22:07.834Z,27.66
2018-04-19T17:24:35.273Z,27.65
2018-04-19T17:27:02.862Z,27.57
2018-04-19T17:29:30.293Z,27.49
2018-04-19T17:31:57.728Z,27.47
2018-04-19T17:34:25.191Z,27.39
2018-04-19T17:36:52.584Z,27.31
2018-04-19T17:39:20.005Z,27.20
2018-04-19T17:41:47.456Z,27.13
2018-04-19T17:44:14.868Z,27.04
2018-04-19T17:46:42.276Z,26.90
2018-04-19T17:49:09.813Z,26.82
2018-04-19T17:51:37.217Z,26.73
2018-04-19T17:54:04.657Z,26.67
2018-04-19T17:56:32.061Z,26.62
2018-04-19T17:58:59.480Z,26.52
2018-04-19T18:01:26.924Z,26.46
2018-04-19T18:03:54.485Z,26.39
2018-04-19T18:06:21.919Z,26.30
2018-04-19T18:08:49.354Z,26.26
2018-04-19T18:11:16.779Z,26.18
2018-04-19T18:13:44.308Z,26.10
2018-04-19T18:16:11.712Z,26.01
2018-04-19T18:18:39.123Z,25.92
2018-04-19T18:21:06.553Z,25.85
2018-04-19T18:23:34.147Z,25.77
2018-04-19T18:26:01.649Z,25.66
2018-04-19T18:28:29.488Z,25.58
2018-04-19T18:30:57.792Z,25.48
2018-04-19T18:33:25.371Z,25.38
2018-04-19T18:35:52.980Z,25.33
2018-04-19T18:38:20.460Z,25.23
2018-04-19T18:40:47.900Z,25.16
2018-04-19T18:43:15.421Z,25.07
2018-04-19T18:45:42.845Z,24.97
2018-04-19T18:48:10.281Z,24.84
2018-04-19T18:50:37.710Z,24.77
2018-04-19T18:53:05.277Z,24.64
2018-04-19T18:55:32.723Z,24.54
2018-04-19T18:58:00.442Z,24.47
2018-04-19T19:00:28.097Z,24.38
2018-04-19T19:02:55.803Z,24.31
2018-04-19T19:05:23.438Z,24.22
2018-04-19T19:07:50.860Z,24.15
2018-04-19T19:10:18.304Z,24.07
2018-04-19T19:12:45.725Z,23.97
2018-04-19T19:18:46.799Z,23.75
2018-04-19T19:21:14.224Z,23.67
2018-04-19T19:23:41.654Z,23.60
2018-04-19T19:26:09.072Z,23.53
2018-04-19T19:28:36.509Z,23.46
2018-04-19T19:31:03.933Z,23.37
2018-04-19T19:33:31.400Z,23.29
2018-04-19T19:35:58.809Z,23.20
2018-04-19T19:38:26.317Z,23.11
2018-04-19T19:40:53.683Z,23.02
2018-04-19T19:43:21.144Z,22.94
2018-04-19T19:45:48.669Z,22.88
2018-04-19T19:48:16.072Z,22.83
2018-04-19T19:50:43.480Z,22.74
2018-04-19T19:53:10.913Z,22.68
2018-04-19T19:55:38.328Z,22.61
2018-04-19T19:58:05.776Z,22.55
2018-04-19T20:00:33.606Z,22.49
2018-04-19T20:03:01.020Z,22.46
2018-04-19T20:05:28.441Z,22.40
2018-04-19T20:07:55.858Z,22.34
2018-04-19T20:10:23.296Z,22.25
2018-04-19T20:12:50.697Z,22.18
2018-04-19T20:15:18.107Z,22.13
2018-04-19T20:17:45.706Z,22.06
2018-04-19T20:20:13.133Z,21.99
2018-04-19T20:22:40.568Z,21.92
2018-04-19T20:25:08.048Z,21.84
2018-04-19T20:27:35.464Z,21.76
2018-04-19T20:30:02.928Z,21.70
2018-04-19T20:32:30.344Z,21.66
2018-04-19T20:34:57.803Z,21.58
2018-04-19T20:37:25.214Z,21.53
2018-04-19T20:39:52.621Z,21.46
2018-04-19T20:42:20.045Z,21.39
2018-04-19T20:44:47.469Z,21.34
2018-04-19T20:47:14.885Z,21.29
2018-04-19T20:49:42.459Z,21.23
2018-04-19T20:52:09.880Z,21.16
2018-04-19T20:54:37.284Z,21.10
2018-04-19T20:57:04.724Z,21.05
2018-04-19T20:59:32.130Z,20.98
2018-04-19T21:01:59.590Z,20.92
2018-04-19T21:04:26.976Z,20.86
2018-04-19T21:06:54.391Z,20.80
2018-04-19T21:09:21.791Z,20.74
2018-04-19T21:11:49.204Z,20.70
2018-04-19T21:14:16.629Z,20.65
2018-04-19T21:16:44.047Z,20.62
2018-04-19T21:19:11.467Z,20.58
2018-04-19T21:21:38.889Z,20.55
2018-04-19T21:24:06.285Z,20.49
2018-04-19T21:26:33.727Z,20.44
2018-04-19T21:29:01.140Z,20.39
2018-04-19T21:31:28.564Z,20.33
2018-04-19T21:33:55.984Z,20.28
2018-04-19T21:36:23.495Z,20.25
2018-04-19T21:38:50.831Z,20.20
2018-04-19T21:41:18.260Z,20.15
2018-04-19T21:43:45.682Z,20.12
2018-04-19T21:46:13.095Z,20.08
2018-04-19T21:48:40.525Z,20.03
2018-04-19T21:51:07.967Z,19.98
2018-04-19T21:53:35.402Z,19.92
2018-04-19T21:56:02.821Z,19.87
2018-04-19T21:58:30.242Z,19.82
2018-04-19T22:00:57.667Z,19.76
2018-04-19T22:03:25.081Z,19.72
2018-04-19T22:05:52.496Z,19.62
2018-04-19T22:08:19.928Z,19.51
2018-04-19T22:10:47.345Z,19.42
2018-04-19T22:13:14.759Z,19.35
2018-04-19T22:15:42.180Z,19.27
2018-04-19T22:18:09.623Z,19.18
2018-04-19T22:20:37.037Z,19.12
2018-04-19T22:23:04.496Z,19.07
2018-04-19T22:25:32.097Z,19.04
2018-04-19T22:27:59.522Z,18.97
2018-04-19T22:30:26.935Z,18.95
2018-04-19T22:32:54.353Z,18.90
2018-04-19T22:35:21.777Z,18.85
2018-04-19T22:37:49.183Z,18.80
2018-04-19T22:40:16.640Z,18.73
2018-04-19T22:42:44.062Z,18.61
2018-04-19T22:45:11.476Z,18.52
2018-04-19T22:47:38.904Z,18.43
2018-04-19T22:50:06.326Z,18.35
2018-04-19T22:52:33.758Z,18.26
2018-04-19T22:55:01.169Z,18.18
2018-04-19T22:57:28.573Z,18.08
2018-04-19T22:59:56.106Z,18.03
2018-04-19T23:02:23.546Z,17.99
2018-04-19T23:04:50.968Z,17.94
2018-04-19T23:07:18.413Z,17.90
2018-04-19T23:09:45.819Z,17.92
2018-04-19T23:12:13.230Z,17.90
2018-04-19T23:14:40.768Z,17.88
2018-04-19T23:17:08.184Z,17.87
2018-04-19T23:19:35.602Z,17.83
2018-04-19T23:22:03.198Z,17.81
2018-04-19T23:24:30.592Z,17.82
2018-04-19T23:26:58.005Z,17.83
2018-04-19T23:29:25.469Z,17.82
2018-04-19T23:31:52.857Z,17.83
2018-04-19T23:34:20.329Z,17.82
2018-04-19T23:36:47.710Z,17.81
2018-04-19T23:39:15.125Z,17.77
2018-04-19T23:41:42.536Z,17.78
2018-04-19T23:44:09.983Z,17.76
2018-04-19T23:46:37.381Z,17.76
2018-04-19T23:49:04.808Z,17.76
2018-04-19T23:51:32.247Z,17.75
2018-04-19T23:53:59.662Z,17.74
2018-04-19T23:56:27.090Z,17.71
2018-04-19T23:58:54.533Z,17.68
